Weather at Papa Westray Airport

Public forecast

Using degrees Celsius for public forecast. Weather courtesy of forecast.io.

Closest aviation weather report (METAR) to Papa Westray Airport

Closest report is Kirkwall Airport, 23.7 nm (43.8 km) S.

2024/06/19 06:20 (retrieved 13 minutes ago)

EGPA 190620Z 23004KT 9999 FEW012 09/07 Q1019

Closest aviation forecast (TAF) to Papa Westray Airport

Closest forecast is RAF Lossiemouth, 99.8 nm (184.8 km) S.

2024/06/19 06:37 (retrieved 0 seconds ago)

TAF EGQS 190429Z 1906/1924 22005KT 9999 FEW020 PROB40 TEMPO 1917/1924 26015G25KT PROB40 TEMPO 1921/1924 SCT020